createdAt,value
2023-01-19T00:01:08.000Z,0.96
2023-01-19T00:03:47.683Z,0.93
2023-01-19T00:06:17.941Z,0.90
2023-01-19T00:08:49.880Z,0.94
2023-01-19T00:11:22.954Z,0.99
2023-01-19T00:13:54.216Z,0.86
2023-01-19T00:16:29.341Z,0.88
2023-01-19T00:19:07.986Z,0.87
2023-01-19T00:21:38.727Z,1.00
2023-01-19T00:24:06.453Z,0.88
2023-01-19T00:26:42.089Z,0.84
2023-01-19T00:29:14.530Z,0.83
2023-01-19T00:31:41.092Z,0.85
2023-01-19T00:34:08.321Z,0.83
2023-01-19T00:36:34.825Z,0.82
2023-01-19T00:39:01.262Z,0.82
2023-01-19T00:41:59.875Z,0.88
2023-01-19T00:44:26.328Z,0.99
2023-01-19T00:46:52.807Z,0.88
2023-01-19T00:49:19.196Z,0.88
2023-01-19T00:51:45.614Z,0.95
2023-01-19T00:54:13.180Z,0.96
2023-01-19T00:56:39.645Z,0.92
2023-01-19T00:59:06.111Z,0.84
2023-01-19T01:01:45.173Z,0.85
2023-01-19T01:04:13.519Z,0.77
2023-01-19T01:06:40.065Z,0.77
2023-01-19T01:09:11.757Z,0.80
2023-01-19T01:11:39.892Z,0.83
2023-01-19T01:14:07.269Z,0.81
2023-01-19T01:16:33.910Z,0.79
2023-01-19T01:19:00.353Z,0.81
2023-01-19T01:21:26.865Z,0.76
2023-01-19T01:23:53.244Z,0.79
2023-01-19T01:26:19.640Z,0.77
2023-01-19T01:28:46.110Z,0.76
2023-01-19T01:31:12.792Z,0.79
2023-01-19T01:33:41.740Z,0.74
2023-01-19T01:36:10.190Z,0.69
2023-01-19T01:38:37.199Z,0.67
2023-01-19T01:41:04.557Z,0.59
2023-01-19T01:43:58.667Z,0.66
2023-01-19T01:46:27.528Z,0.63
2023-01-19T01:49:15.663Z,0.65
2023-01-19T01:51:48.460Z,0.69
2023-01-19T01:54:33.013Z,0.68
2023-01-19T01:57:07.111Z,0.59
2023-01-19T01:59:41.974Z,0.61
2023-01-19T02:02:37.566Z,0.57
2023-01-19T02:05:12.601Z,0.45
2023-01-19T02:08:21.360Z,0.49
2023-01-19T02:11:10.677Z,0.49
2023-01-19T02:13:44.300Z,0.30
2023-01-19T02:16:15.256Z,0.28
2023-01-19T02:18:43.338Z,0.16
2023-01-19T02:21:16.490Z,0.20
2023-01-19T02:23:53.477Z,0.29
2023-01-19T02:26:31.080Z,0.31
2023-01-19T02:29:08.857Z,0.41
2023-01-19T02:31:37.343Z,0.34
2023-01-19T02:34:05.051Z,0.26
2023-01-19T02:36:53.477Z,0.16
2023-01-19T02:39:33.819Z,0.25
2023-01-19T02:42:04.314Z,0.16
2023-01-19T02:44:32.274Z,0.17
2023-01-19T02:46:59.124Z,0.03
2023-01-19T02:49:29.997Z,0.13
2023-01-19T02:51:57.620Z,-0.18
2023-01-19T02:54:29.975Z,-0.19
2023-01-19T02:57:19.352Z,-0.09
2023-01-19T02:59:48.783Z,-0.06
2023-01-19T03:02:52.796Z,0.04
2023-01-19T03:05:34.076Z,0.06
2023-01-19T03:08:06.440Z,0.01
2023-01-19T03:10:41.039Z,-0.10
2023-01-19T03:13:22.196Z,0.02
2023-01-19T03:15:52.848Z,-0.06
2023-01-19T03:18:23.079Z,-0.05
2023-01-19T03:20:53.354Z,-0.01
2023-01-19T03:23:22.200Z,-0.06
2023-01-19T03:25:50.380Z,-0.08
2023-01-19T03:28:20.112Z,0.06
2023-01-19T03:30:56.395Z,-0.02
2023-01-19T03:33:29.262Z,-0.05
2023-01-19T03:36:06.437Z,-0.10
2023-01-19T03:38:37.485Z,-0.24
2023-01-19T03:41:13.937Z,-0.20
2023-01-19T03:43:43.053Z,-0.40
2023-01-19T03:46:11.258Z,-0.30
2023-01-19T03:48:39.179Z,-0.24
2023-01-19T03:51:09.294Z,-0.22
2023-01-19T03:53:36.752Z,-0.33
2023-01-19T03:56:04.231Z,-0.26
2023-01-19T03:58:31.577Z,-0.26
2023-01-19T04:00:58.936Z,-0.37
2023-01-19T04:03:26.080Z,-0.44
2023-01-19T04:05:57.329Z,-0.48
2023-01-19T04:08:27.443Z,-0.51
2023-01-19T04:10:54.534Z,-0.56
2023-01-19T04:13:23.793Z,-0.58
2023-01-19T04:15:54.103Z,-0.56
2023-01-19T04:18:21.238Z,-0.71
2023-01-19T04:20:48.206Z,-0.70
2023-01-19T04:23:15.458Z,-0.74
2023-01-19T04:25:42.817Z,-0.73
2023-01-19T04:28:10.293Z,-0.73
2023-01-19T04:30:37.619Z,-0.71
2023-01-19T04:33:04.482Z,-0.78
2023-01-19T04:35:30.898Z,-0.66
2023-01-19T04:37:57.274Z,-0.83
2023-01-19T04:40:23.756Z,-0.77
2023-01-19T04:42:50.951Z,-0.93
2023-01-19T04:45:17.391Z,-0.90
2023-01-19T04:47:43.861Z,-0.81
2023-01-19T04:50:11.702Z,-0.87
2023-01-19T04:52:38.269Z,-0.85
2023-01-19T04:55:06.164Z,-0.80
2023-01-19T04:57:32.703Z,-0.83
2023-01-19T04:59:59.206Z,-0.83
2023-01-19T05:02:26.213Z,-0.86
2023-01-19T05:04:53.225Z,-0.91
2023-01-19T05:07:19.681Z,-0.84
2023-01-19T05:09:46.143Z,-1.03
2023-01-19T05:12:12.749Z,-1.03
2023-01-19T05:14:39.263Z,-1.06
2023-01-19T05:17:05.775Z,-1.07
2023-01-19T05:19:33.284Z,-1.04
2023-01-19T05:22:11.093Z,-1.04
2023-01-19T05:24:38.074Z,-1.01
2023-01-19T05:27:05.242Z,-1.10
2023-01-19T05:29:32.318Z,-1.03
2023-01-19T05:31:59.326Z,-1.06
2023-01-19T05:34:26.555Z,-1.00
2023-01-19T05:36:53.862Z,-1.04
2023-01-19T05:39:21.319Z,-1.03
2023-01-19T05:41:48.129Z,-0.97
2023-01-19T05:44:15.490Z,-1.11
2023-01-19T05:46:42.491Z,-1.23
2023-01-19T05:49:10.120Z,-1.19
2023-01-19T05:51:38.611Z,-1.18
2023-01-19T05:54:09.245Z,-1.04
2023-01-19T05:56:36.144Z,-1.14
2023-01-19T05:59:03.138Z,-1.08
2023-01-19T06:01:35.089Z,-1.02
2023-01-19T06:04:03.514Z,-1.06
2023-01-19T06:06:33.516Z,-1.19
2023-01-19T06:09:00.624Z,-1.19
2023-01-19T06:11:30.439Z,-1.22
2023-01-19T06:14:06.380Z,-1.21
2023-01-19T06:16:36.502Z,-1.21
2023-01-19T06:19:03.596Z,-1.20
2023-01-19T06:21:32.317Z,-1.33
2023-01-19T06:23:58.776Z,-1.35
2023-01-19T06:26:26.159Z,-1.25
2023-01-19T06:28:52.610Z,-1.29
2023-01-19T06:31:19.170Z,-1.24
2023-01-19T06:33:45.735Z,-1.23
2023-01-19T06:36:12.214Z,-1.32
2023-01-19T06:38:38.615Z,-1.31
2023-01-19T06:41:05.523Z,-1.32
2023-01-19T06:43:32.695Z,-1.32
2023-01-19T06:46:00.496Z,-1.35
2023-01-19T06:48:27.077Z,-1.35
2023-01-19T06:50:53.457Z,-1.27
2023-01-19T06:53:22.142Z,-1.34
2023-01-19T06:55:48.747Z,-1.31
2023-01-19T06:58:15.231Z,-1.25
2023-01-19T07:00:43.019Z,-1.32
2023-01-19T07:03:18.950Z,-1.18
2023-01-19T07:05:45.492Z,-1.27
2023-01-19T07:08:12.139Z,-1.24
2023-01-19T07:11:25.799Z,-1.29
2023-01-19T07:13:25.198Z,-1.28
2023-01-19T07:15:51.668Z,-1.20
2023-01-19T07:18:18.203Z,-1.28
2023-01-19T07:20:46.943Z,-1.21
2023-01-19T07:23:14.015Z,-1.35
2023-01-19T07:25:48.941Z,-1.33
2023-01-19T07:28:17.992Z,-1.22
2023-01-19T07:30:46.361Z,-1.22
2023-01-19T07:33:15.539Z,-1.11
2023-01-19T07:35:50.171Z,-1.15
2023-01-19T07:38:21.309Z,-1.12
2023-01-19T07:40:51.152Z,-1.08
2023-01-19T07:43:18.319Z,-0.96
2023-01-19T07:45:47.220Z,-1.00
2023-01-19T07:48:14.316Z,-1.02
2023-01-19T07:50:41.313Z,-1.09
2023-01-19T07:53:14.695Z,-1.08
2023-01-19T07:55:41.497Z,-0.96
2023-01-19T07:58:08.625Z,-0.97
2023-01-19T08:00:37.149Z,-1.04
2023-01-19T08:03:05.288Z,-0.96
2023-01-19T08:05:33.341Z,-0.97
2023-01-19T08:08:00.425Z,-1.07
2023-01-19T08:10:31.201Z,-1.05
2023-01-19T08:12:59.666Z,-0.98
2023-01-19T08:15:27.365Z,-1.10
2023-01-19T08:18:03.765Z,-0.88
2023-01-19T08:20:33.792Z,-0.92
2023-01-19T08:23:02.308Z,-0.88
2023-01-19T08:25:42.368Z,-0.84
2023-01-19T08:28:11.139Z,-0.84
2023-01-19T08:30:38.949Z,-0.75
2023-01-19T08:33:08.411Z,-0.69
2023-01-19T08:35:40.671Z,-0.67
2023-01-19T08:38:17.776Z,-0.55
2023-01-19T08:40:44.788Z,-0.51
2023-01-19T08:43:14.377Z,-0.42
2023-01-19T08:45:49.254Z,-0.46
2023-01-19T08:48:21.932Z,-0.47
2023-01-19T08:50:53.352Z,-0.46
2023-01-19T08:53:23.971Z,-0.30
2023-01-19T08:56:00.384Z,-0.34
2023-01-19T08:58:30.973Z,1.67
2023-01-19T09:01:03.925Z,1.24
2023-01-19T09:03:37.134Z,0.70
2023-01-19T09:06:17.303Z,0.69
2023-01-19T09:08:44.324Z,0.49
2023-01-19T09:11:12.165Z,0.27
2023-01-19T09:13:39.633Z,0.31
2023-01-19T09:16:07.829Z,0.65
2023-01-19T09:18:35.429Z,0.22
2023-01-19T09:21:03.903Z,0.15
2023-01-19T09:23:30.484Z,0.26
2023-01-19T09:25:59.565Z,0.09
2023-01-19T09:28:26.557Z,0.05
2023-01-19T09:30:53.214Z,0.20
2023-01-19T09:33:20.212Z,0.10
2023-01-19T09:35:48.402Z,0.15
2023-01-19T09:38:16.735Z,0.10
2023-01-19T09:40:47.508Z,0.09
2023-01-19T09:43:16.910Z,0.15
2023-01-19T09:45:47.801Z,0.09
2023-01-19T09:48:57.710Z,0.24
2023-01-19T09:51:32.772Z,0.20
2023-01-19T09:54:14.446Z,0.36
2023-01-19T09:56:41.765Z,0.41
2023-01-19T09:59:17.840Z,0.31
2023-01-19T10:01:59.341Z,0.46
2023-01-19T10:04:39.557Z,0.57
2023-01-19T10:07:35.211Z,0.52
2023-01-19T10:10:27.906Z,0.58
2023-01-19T10:12:57.716Z,0.74
2023-01-19T10:15:42.963Z,0.60
2023-01-19T10:18:36.056Z,0.62
2023-01-19T10:21:11.702Z,0.73
2023-01-19T10:24:07.221Z,0.82
2023-01-19T10:26:56.163Z,0.89
2023-01-19T10:29:36.621Z,0.84
2023-01-19T10:32:33.637Z,1.00
2023-01-19T10:35:03.411Z,1.01
2023-01-19T10:37:40.797Z,1.05
2023-01-19T10:40:13.974Z,1.07
2023-01-19T10:42:42.617Z,1.48
2023-01-19T10:45:17.864Z,1.74
2023-01-19T10:47:46.904Z,1.86
2023-01-19T10:50:29.872Z,1.83
2023-01-19T10:52:59.918Z,1.69
2023-01-19T10:55:38.686Z,1.54
2023-01-19T10:58:26.694Z,1.45
2023-01-19T11:00:53.901Z,1.54
2023-01-19T11:03:32.065Z,1.50
2023-01-19T11:06:24.270Z,1.49
2023-01-19T11:08:52.588Z,1.55
2023-01-19T11:11:21.529Z,1.43
2023-01-19T11:14:04.819Z,1.34
2023-01-19T11:16:34.738Z,1.34
2023-01-19T11:19:03.129Z,1.32
2023-01-19T11:21:32.057Z,1.40
2023-01-19T11:24:08.908Z,1.44
2023-01-19T11:26:44.936Z,1.46
2023-01-19T11:29:19.145Z,1.47
2023-01-19T11:31:45.883Z,1.59
2023-01-19T11:34:44.741Z,1.69
2023-01-19T11:37:17.224Z,1.83
2023-01-19T11:39:49.952Z,1.80
2023-01-19T11:42:17.620Z,1.82
2023-01-19T11:45:05.217Z,1.93
2023-01-19T11:47:45.227Z,1.83
2023-01-19T11:50:30.454Z,1.86
2023-01-19T11:53:24.890Z,1.80
2023-01-19T11:56:15.180Z,1.81
2023-01-19T11:58:47.416Z,1.90
2023-01-19T12:01:27.676Z,2.04
2023-01-19T12:04:04.493Z,2.07
2023-01-19T12:06:34.934Z,1.97
2023-01-19T12:09:20.119Z,1.98
2023-01-19T12:11:55.939Z,1.95
2023-01-19T12:14:34.984Z,1.97
2023-01-19T12:17:20.876Z,1.97
2023-01-19T12:19:59.559Z,1.98
2023-01-19T12:22:32.186Z,2.04
2023-01-19T12:25:15.900Z,2.08
2023-01-19T12:27:53.522Z,2.12
2023-01-19T12:30:29.199Z,2.14
2023-01-19T12:33:20.991Z,2.18
2023-01-19T12:36:01.090Z,2.29
2023-01-19T12:38:46.410Z,2.32
2023-01-19T12:41:28.735Z,2.29
2023-01-19T12:44:16.745Z,2.33
2023-01-19T12:46:54.773Z,2.36
2023-01-19T12:49:24.253Z,2.34
2023-01-19T12:51:53.991Z,2.30
2023-01-19T12:54:32.122Z,2.23
2023-01-19T12:57:09.238Z,2.27
2023-01-19T12:59:40.044Z,2.20
2023-01-19T13:02:26.053Z,2.36
2023-01-19T13:05:20.609Z,2.35
2023-01-19T13:08:02.788Z,2.29
2023-01-19T13:11:02.138Z,2.39
2023-01-19T13:13:40.388Z,2.41
2023-01-19T13:16:19.544Z,2.50
2023-01-19T13:18:48.323Z,2.50
2023-01-19T13:21:32.814Z,2.37
2023-01-19T13:24:07.778Z,2.39
2023-01-19T13:26:38.816Z,2.31
2023-01-19T13:29:05.652Z,2.31
2023-01-19T13:31:41.046Z,2.37
2023-01-19T13:34:14.421Z,2.38
2023-01-19T13:36:46.132Z,2.40
2023-01-19T13:39:26.913Z,2.40
2023-01-19T13:42:00.820Z,2.41
2023-01-19T13:44:42.391Z,2.31
2023-01-19T13:47:17.515Z,2.33
2023-01-19T13:50:04.231Z,2.34
2023-01-19T13:52:34.159Z,2.41
2023-01-19T13:55:07.823Z,2.38
2023-01-19T13:57:43.853Z,2.34
2023-01-19T14:00:16.403Z,2.40
2023-01-19T14:02:57.324Z,2.23
2023-01-19T14:05:48.414Z,2.22
2023-01-19T14:08:20.861Z,2.06
2023-01-19T14:11:02.387Z,2.03
2023-01-19T14:13:41.839Z,2.03
2023-01-19T14:16:34.156Z,2.03
2023-01-19T14:19:04.270Z,2.06
2023-01-19T14:21:55.443Z,2.06
2023-01-19T14:24:48.695Z,2.04
2023-01-19T14:27:43.640Z,1.90
2023-01-19T14:30:32.918Z,1.83
2023-01-19T14:33:00.091Z,1.83
2023-01-19T14:35:27.077Z,1.83
2023-01-19T14:37:56.210Z,1.91
2023-01-19T14:40:24.815Z,1.81
2023-01-19T14:42:53.667Z,1.82
2023-01-19T14:45:35.094Z,1.67
2023-01-19T14:48:21.083Z,1.74
2023-01-19T14:51:03.138Z,1.68
2023-01-19T14:53:46.774Z,1.61
2023-01-19T14:56:30.167Z,1.58
2023-01-19T14:58:58.974Z,1.64
2023-01-19T15:01:34.244Z,1.67
2023-01-19T15:04:06.140Z,1.70
2023-01-19T15:06:42.822Z,1.64
2023-01-19T15:09:12.302Z,1.66
2023-01-19T15:11:39.652Z,1.68
2023-01-19T15:14:06.252Z,1.64
2023-01-19T15:16:34.663Z,1.50
2023-01-19T15:19:01.103Z,1.54
2023-01-19T15:21:27.556Z,1.44
2023-01-19T15:23:55.003Z,1.46
2023-01-19T15:26:23.905Z,1.50
2023-01-19T15:28:50.837Z,1.54
2023-01-19T15:31:23.051Z,1.62
2023-01-19T15:33:49.739Z,1.54
2023-01-19T15:36:21.469Z,1.55
2023-01-19T15:38:50.750Z,1.69
2023-01-19T15:41:23.564Z,1.54
2023-01-19T15:43:50.888Z,1.54
2023-01-19T15:46:20.692Z,1.52
2023-01-19T15:48:47.897Z,1.57
2023-01-19T15:51:16.355Z,1.54
2023-01-19T15:53:44.768Z,1.67
2023-01-19T15:56:19.511Z,1.69
2023-01-19T15:58:45.981Z,1.72
2023-01-19T16:01:17.970Z,1.69
2023-01-19T16:03:45.111Z,1.65
2023-01-19T16:06:12.714Z,1.75
2023-01-19T16:08:39.933Z,1.79
2023-01-19T16:11:24.891Z,1.65
2023-01-19T16:13:51.864Z,1.70
2023-01-19T16:16:20.863Z,1.82
2023-01-19T16:18:48.691Z,1.72
2023-01-19T16:21:16.155Z,1.62
2023-01-19T16:23:42.811Z,1.57
2023-01-19T16:26:34.559Z,1.63
2023-01-19T16:29:10.007Z,1.51
2023-01-19T16:31:41.228Z,1.52
2023-01-19T16:34:08.813Z,1.54
2023-01-19T16:36:40.942Z,1.57
2023-01-19T16:39:13.916Z,1.56
2023-01-19T16:41:42.134Z,1.69
2023-01-19T16:44:30.989Z,1.60
2023-01-19T16:46:57.969Z,1.64
2023-01-19T16:49:28.498Z,1.71
2023-01-19T16:51:57.163Z,1.77
2023-01-19T16:54:27.778Z,1.85
2023-01-19T16:56:56.437Z,1.76
2023-01-19T16:59:24.957Z,1.80
2023-01-19T17:01:52.414Z,1.86
